Time;durP1;ratioP1;P1;durP2;ratioP2;P2;SDS_P1;SDS_P2;PMS_P1;PMS_P2;Temp;Humidity;BMP_temperature;BMP_pressure;BME280_temperature;BME280_humidity;BME280_pressure;Samples;Min_cycle;Max_cycle;Signal;HPM_P1;HPM_P2
2023/03/11 00:00:59;;;;;;;;;;;;;;;27.99;64.37;101186.03;5050806;28;67181;-47
2023/03/11 00:03:30;;;;;;;;;;;;;;;28.04;65.02;101188.16;5051167;28;70165;-47
2023/03/11 00:06:01;;;;;;;;;;;;;;;28.07;65.14;101196.69;5047299;28;66972;-46
2023/03/11 00:08:31;;;;;;;;;;;;;;;28.09;65.00;101191.09;5051706;28;70172;-47
2023/03/11 00:11:02;;;;;;;;;;;;;;;28.12;65.63;101203.38;5052114;28;65804;-46
2023/03/11 00:13:32;;;;;;;;;;;;;;;28.16;66.29;101201.94;5049357;28;69843;-46
2023/03/11 00:16:03;;;;;;;;;;;;;;;28.19;65.95;101201.56;5049916;28;66039;-48
2023/03/11 00:18:33;;;;;;;;;;;;;;;28.17;65.36;101207.16;5047751;28;68709;-46
2023/03/11 00:21:04;;;;;;;;;;;;;;;28.20;65.89;101211.34;5043361;27;66958;-47
2023/03/11 00:23:34;;;;;;;;;;;;;;;28.14;66.00;101212.09;5051474;28;70325;-47
2023/03/11 00:26:05;;;;;;;;;;;;;;;27.94;66.44;101220.81;5053193;28;66117;-46
2023/03/11 00:28:35;;;;;;;;;;;;;;;27.74;66.96;101219.75;5045776;28;69933;-47
2023/03/11 00:31:05;;;;;;;;;;;;;;;27.57;67.52;101225.38;5056474;28;66657;-44
2023/03/11 00:33:36;;;;;;;;;;;;;;;27.46;68.02;101233.13;5051934;28;69471;-44
2023/03/11 00:36:06;;;;;;;;;;;;;;;27.42;67.82;101234.53;5053393;28;65739;-43
2023/03/11 00:38:37;;;;;;;;;;;;;;;27.54;67.86;101236.53;5048243;28;70589;-44
2023/03/11 00:41:07;;;;;;;;;;;;;;;27.69;67.86;101243.75;5046324;28;67143;-45
2023/03/11 00:43:37;;;;;;;;;;;;;;;27.79;67.16;101238.91;5048951;28;70773;-44
2023/03/11 00:46:08;;;;;;;;;;;;;;;27.80;66.38;101252.22;5051870;28;66689;-45
2023/03/11 00:48:39;;;;;;;;;;;;;;;27.78;65.82;101250.72;5051074;28;70234;-43
2023/03/11 00:51:18;;;;;;;;;;;;;;;27.78;65.47;101248.03;5043061;28;66374;-44
2023/03/11 00:53:49;;;;;;;;;;;;;;;27.81;65.27;101256.59;5049773;27;70103;-45
2023/03/11 00:56:20;;;;;;;;;;;;;;;27.86;64.99;101256.03;5058525;27;66447;-46
2023/03/11 00:58:51;;;;;;;;;;;;;;;27.88;64.86;101262.03;5073910;27;69791;-47
2023/03/11 01:01:22;;;;;;;;;;;;;;;27.92;65.16;101271.44;5051707;27;66782;-45
2023/03/11 01:03:52;;;;;;;;;;;;;;;27.94;64.75;101274.75;5046820;27;69924;-45
2023/03/11 01:06:22;;;;;;;;;;;;;;;27.98;65.02;101281.44;5046519;28;66380;-46
2023/03/11 01:09:04;;;;;;;;;;;;;;;28.01;64.59;101280.22;5046269;27;70105;-48
2023/03/11 01:11:34;;;;;;;;;;;;;;;28.03;64.56;101284.41;5063336;27;66216;-46
2023/03/11 01:14:05;;;;;;;;;;;;;;;28.06;64.26;101284.03;5046809;28;69456;-44
2023/03/11 01:16:35;;;;;;;;;;;;;;;28.05;64.71;101293.16;5045540;28;66178;-45
2023/03/11 01:19:05;;;;;;;;;;;;;;;28.07;64.65;101291.06;5047901;27;69728;-45
2023/03/11 01:21:35;;;;;;;;;;;;;;;28.29;66.06;101283.00;5044563;28;66252;-44
2023/03/11 01:24:07;;;;;;;;;;;;;;;28.38;65.57;101292.63;5044663;28;70073;-45
2023/03/11 01:26:38;;;;;;;;;;;;;;;28.41;65.80;101302.19;5047894;28;65665;-43
2023/03/11 01:29:09;;;;;;;;;;;;;;;28.45;65.74;101298.13;5047128;27;68522;-44
2023/03/11 01:31:39;;;;;;;;;;;;;;;28.46;65.58;101305.19;5047243;28;66107;-46
2023/03/11 01:34:09;;;;;;;;;;;;;;;28.49;65.78;101305.63;5045100;28;70194;-43
2023/03/11 01:36:41;;;;;;;;;;;;;;;28.52;65.56;101310.63;5042074;28;66617;-43
2023/03/11 01:39:12;;;;;;;;;;;;;;;28.54;65.86;101306.91;5044649;28;70414;-43
2023/03/11 01:41:43;;;;;;;;;;;;;;;28.57;65.53;101311.94;5047560;28;66788;-46
2023/03/11 01:44:13;;;;;;;;;;;;;;;28.61;64.99;101313.19;5061374;27;69317;-45
2023/03/11 01:46:53;;;;;;;;;;;;;;;28.64;65.37;101312.78;5052158;28;66650;-45
2023/03/11 01:49:27;;;;;;;;;;;;;;;28.65;64.87;101312.63;5049941;28;69463;-43
2023/03/11 01:51:59;;;;;;;;;;;;;;;28.60;64.31;101317.75;5053379;28;66140;-44
2023/03/11 01:54:31;;;;;;;;;;;;;;;28.54;64.23;101318.53;5078789;27;70350;-45
2023/03/11 01:57:05;;;;;;;;;;;;;;;28.51;64.17;101308.97;5060271;27;65755;-45
2023/03/11 01:59:38;;;;;;;;;;;;;;;28.50;64.14;101311.84;5076074;27;70632;-45
2023/03/11 02:02:11;;;;;;;;;;;;;;;28.52;64.19;101313.31;5045031;28;66461;-45
2023/03/11 02:04:42;;;;;;;;;;;;;;;28.54;64.51;101318.53;5059561;27;69727;-45
2023/03/11 02:07:13;;;;;;;;;;;;;;;28.58;64.21;101321.69;5062412;28;67245;-44
2023/03/11 02:09:45;;;;;;;;;;;;;;;28.61;64.55;101326.69;5046485;28;69439;-44
2023/03/11 02:12:15;;;;;;;;;;;;;;;28.63;64.27;101322.75;5041812;28;66443;-45
2023/03/11 02:14:48;;;;;;;;;;;;;;;28.66;64.47;101324.25;5075657;27;71312;-45
2023/03/11 02:17:18;;;;;;;;;;;;;;;28.67;64.28;101329.47;5058735;27;66524;-45
2023/03/11 02:19:51;;;;;;;;;;;;;;;28.70;64.41;101328.25;5042641;28;68950;-44
2023/03/11 02:22:22;;;;;;;;;;;;;;;28.72;64.33;101331.56;5040127;27;66467;-45
2023/03/11 02:24:57;;;;;;;;;;;;;;;28.76;64.13;101332.84;5045704;27;70396;-46
2023/03/11 02:27:27;;;;;;;;;;;;;;;28.77;63.89;101329.09;5044270;27;66320;-45
2023/03/11 02:29:59;;;;;;;;;;;;;;;28.80;64.10;101323.31;5039460;28;69268;-47
2023/03/11 02:32:33;;;;;;;;;;;;;;;28.84;64.27;101331.88;5055101;28;66168;-46
2023/03/11 02:35:04;;;;;;;;;;;;;;;28.86;63.99;101325.25;5053445;28;70284;-45
2023/03/11 02:37:34;;;;;;;;;;;;;;;28.88;63.71;101320.47;5048761;27;67303;-46
2023/03/11 02:40:30;;;;;;;;;;;;;;;28.92;64.02;101324.47;5060983;27;70803;-45
2023/03/11 02:43:12;;;;;;;;;;;;;;;28.94;63.88;101325.09;5075487;27;66008;-44
2023/03/11 02:45:44;;;;;;;;;;;;;;;28.96;63.50;101323.03;5046506;27;69259;-45
2023/03/11 02:48:15;;;;;;;;;;;;;;;28.99;63.95;101316.41;5079723;27;66702;-45
2023/03/11 02:50:46;;;;;;;;;;;;;;;29.01;63.78;101308.13;5043701;28;69022;-44
2023/03/11 02:53:19;;;;;;;;;;;;;;;29.04;63.74;101322.09;5042670;28;66824;-46
2023/03/11 02:55:49;;;;;;;;;;;;;;;29.06;63.24;101322.72;5049481;28;70746;-45
2023/03/11 02:58:19;;;;;;;;;;;;;;;29.10;63.22;101317.75;5057914;28;66262;-45
2023/03/11 03:00:50;;;;;;;;;;;;;;;29.11;63.36;101319.41;5050662;28;70343;-44
2023/03/11 03:03:21;;;;;;;;;;;;;;;29.13;63.35;101322.75;5083987;27;65840;-47
2023/03/11 03:05:52;;;;;;;;;;;;;;;29.15;62.79;101316.13;5055077;28;70572;-44
2023/03/11 03:08:22;;;;;;;;;;;;;;;29.17;63.20;101302.44;5051459;28;66216;-46
2023/03/11 03:10:54;;;;;;;;;;;;;;;29.18;63.26;101299.53;5047287;28;69529;-46
2023/03/11 03:13:25;;;;;;;;;;;;;;;29.23;63.16;101314.31;5048222;28;66963;-46
2023/03/11 03:15:56;;;;;;;;;;;;;;;29.25;63.03;101304.13;5059281;28;70810;-45
2023/03/11 03:18:27;;;;;;;;;;;;;;;29.27;63.02;101302.88;5088349;27;66331;-45
2023/03/11 03:20:57;;;;;;;;;;;;;;;29.28;62.49;101301.88;5051748;27;69502;-46
2023/03/11 03:23:28;;;;;;;;;;;;;;;29.31;62.28;101303.31;5048540;28;66971;-47
2023/03/11 03:25:59;;;;;;;;;;;;;;;29.33;62.11;101302.09;5055947;28;69877;-46
2023/03/11 03:28:29;;;;;;;;;;;;;;;29.34;62.64;101292.97;5059418;27;66009;-47
2023/03/11 03:31:04;;;;;;;;;;;;;;;29.37;61.95;101299.84;5056457;28;70015;-46
2023/03/11 03:33:34;;;;;;;;;;;;;;;29.40;61.97;101297.56;5052657;28;66428;-46
2023/03/11 03:36:09;;;;;;;;;;;;;;;29.43;61.85;101295.50;5051623;28;70259;-44
2023/03/11 03:38:46;;;;;;;;;;;;;;;29.45;61.75;101283.47;5057460;28;66767;-48
2023/03/11 03:41:17;;;;;;;;;;;;;;;29.48;61.58;101290.34;5075775;27;69886;-46
2023/03/11 03:43:48;;;;;;;;;;;;;;;29.50;61.78;101280.13;5058486;28;66299;-46
2023/03/11 03:46:19;;;;;;;;;;;;;;;29.53;61.91;101282.44;5085036;27;70355;-46
2023/03/11 03:48:52;;;;;;;;;;;;;;;29.55;61.36;101275.78;5083309;27;67505;-47
2023/03/11 03:51:22;;;;;;;;;;;;;;;29.32;61.07;101230.16;5085743;27;70518;-46
2023/03/11 03:54:19;;;;;;;;;;;;;;;29.60;61.57;101270.63;5048425;28;66196;-46
2023/03/11 03:56:49;;;;;;;;;;;;;;;29.64;61.20;101265.66;5050441;28;70675;-45
2023/03/11 03:59:20;;;;;;;;;;;;;;;29.65;61.09;101261.94;5062550;27;66449;-44
2023/03/11 04:01:55;;;;;;;;;;;;;;;29.67;61.37;101254.47;5048204;28;70410;-45
2023/03/11 04:04:29;;;;;;;;;;;;;;;29.71;60.89;101255.72;5049060;28;66834;-46
2023/03/11 04:06:59;;;;;;;;;;;;;;;29.72;61.19;101245.72;5049259;28;69882;-46
2023/03/11 04:09:30;;;;;;;;;;;;;;;29.75;61.07;101245.31;5046449;28;66610;-45
2023/03/11 04:12:01;;;;;;;;;;;;;;;29.75;60.48;101240.72;5044058;28;71772;-45
2023/03/11 04:14:34;;;;;;;;;;;;;;;29.71;60.59;101231.38;5079269;27;66598;-46
2023/03/11 04:17:05;;;;;;;;;;;;;;;29.71;60.66;101227.84;5075524;27;69306;-44
2023/03/11 04:19:35;;;;;;;;;;;;;;;29.66;60.97;101228.44;5048682;28;66048;-45
2023/03/11 04:22:06;;;;;;;;;;;;;;;29.65;61.45;101220.56;5054862;28;69011;-43
2023/03/11 04:24:36;;;;;;;;;;;;;;;29.63;61.37;101218.03;5050783;28;67085;-45
2023/03/11 04:27:07;;;;;;;;;;;;;;;29.70;61.34;101216.19;5060874;27;71936;-45
2023/03/11 04:29:40;;;;;;;;;;;;;;;29.75;61.24;101211.00;5053815;28;67039;-46
2023/03/11 04:32:10;;;;;;;;;;;;;;;29.81;61.07;101209.34;5051526;28;70298;-47
2023/03/11 04:34:43;;;;;;;;;;;;;;;29.87;60.85;101199.59;5051506;28;66761;-46
2023/03/11 04:37:15;;;;;;;;;;;;;;;29.92;60.81;101197.09;5060570;27;69940;-46
2023/03/11 04:39:45;;;;;;;;;;;;;;;29.96;61.26;101196.47;5052363;28;66393;-44
2023/03/11 04:42:17;;;;;;;;;;;;;;;30.01;60.99;101193.16;5052597;28;70419;-45
2023/03/11 04:44:49;;;;;;;;;;;;;;;30.04;60.93;101193.56;5056899;28;66821;-45
2023/03/11 04:47:20;;;;;;;;;;;;;;;30.09;61.00;101179.44;5056166;28;71156;-45
2023/03/11 04:49:51;;;;;;;;;;;;;;;30.12;60.32;101181.72;5086417;27;66436;-45
2023/03/11 04:52:22;;;;;;;;;;;;;;;30.15;60.56;101175.88;5052466;28;70060;-45
2023/03/11 04:54:53;;;;;;;;;;;;;;;30.19;60.34;101173.59;5052204;28;66094;-45
2023/03/11 04:57:24;;;;;;;;;;;;;;;30.21;60.48;101169.63;5046061;28;70339;-45
2023/03/11 04:59:54;;;;;;;;;;;;;;;30.24;60.49;101168.41;5056958;28;66454;-46
2023/03/11 05:02:24;;;;;;;;;;;;;;;30.17;61.18;101156.72;5047915;28;69376;-46
2023/03/11 05:05:00;;;;;;;;;;;;;;;29.97;58.38;101152.16;5059687;27;65879;-50
2023/03/11 05:07:31;;;;;;;;;;;;;;;29.74;55.93;101144.44;5045492;28;70837;-47
2023/03/11 05:10:03;;;;;;;;;;;;;;;29.64;54.85;101138.59;5058550;27;66886;-46
2023/03/11 05:12:35;;;;;;;;;;;;;;;29.54;54.41;101130.88;5053567;28;70513;-45
2023/03/11 05:15:05;;;;;;;;;;;;;;;29.43;53.66;101120.66;5055226;28;66850;-47
2023/03/11 05:17:36;;;;;;;;;;;;;;;29.39;53.43;101117.53;5053744;28;70490;-47
2023/03/11 05:20:08;;;;;;;;;;;;;;;29.33;52.53;101106.69;5082440;27;66795;-47
2023/03/11 05:22:39;;;;;;;;;;;;;;;29.28;51.57;101101.06;5087777;27;69801;-49
2023/03/11 05:25:10;;;;;;;;;;;;;;;29.23;51.19;101098.19;5068225;27;66329;-47
2023/03/11 05:27:40;;;;;;;;;;;;;;;29.18;50.04;101098.78;5042747;28;68992;-46
2023/03/11 05:30:14;;;;;;;;;;;;;;;29.15;49.56;101082.97;5048468;28;66119;-48
2023/03/11 05:32:46;;;;;;;;;;;;;;;29.11;49.28;101084.41;5055173;28;69805;-48
2023/03/11 05:35:17;;;;;;;;;;;;;;;29.07;48.25;101085.88;5054680;28;66985;-47
2023/03/11 05:37:52;;;;;;;;;;;;;;;29.05;48.18;101083.34;5048491;28;69296;-47
2023/03/11 05:40:24;;;;;;;;;;;;;;;29.02;47.49;101075.63;5065376;27;66657;-47
2023/03/11 05:42:55;;;;;;;;;;;;;;;28.95;46.71;101072.91;5054476;28;70184;-48
2023/03/11 05:45:28;;;;;;;;;;;;;;;28.91;46.16;101068.94;5054327;28;67006;-49
2023/03/11 05:48:01;;;;;;;;;;;;;;;28.88;45.95;101068.53;5047761;28;69812;-44
2023/03/11 05:50:32;;;;;;;;;;;;;;;28.88;46.07;101055.84;5048475;28;66664;-46
2023/03/11 05:53:03;;;;;;;;;;;;;;;28.87;45.62;101059.59;5052753;27;70727;-47
2023/03/11 05:55:35;;;;;;;;;;;;;;;28.88;45.12;101050.44;5048018;28;66307;-46
2023/03/11 05:58:05;;;;;;;;;;;;;;;28.85;45.09;101040.06;5049948;28;70687;-48
2023/03/11 06:00:36;;;;;;;;;;;;;;;28.87;44.62;101035.28;5064449;27;66076;-53
2023/03/11 06:03:06;;;;;;;;;;;;;;;28.96;44.72;101030.53;5050673;28;70213;-46
2023/03/11 06:05:43;;;;;;;;;;;;;;;29.01;44.11;101028.06;5044530;28;66401;-47
2023/03/11 06:08:13;;;;;;;;;;;;;;;29.03;43.57;101019.75;5054047;28;70311;-45
2023/03/11 06:10:44;;;;;;;;;;;;;;;29.07;43.00;101010.25;5054675;28;65452;-47
2023/03/11 06:13:18;;;;;;;;;;;;;;;29.07;42.63;101012.94;5059266;27;70552;-45
2023/03/11 06:15:52;;;;;;;;;;;;;;;29.11;42.26;101006.06;5067059;27;66736;-46
2023/03/11 06:18:25;;;;;;;;;;;;;;;29.10;41.27;101007.94;5047101;28;69320;-45
2023/03/11 06:20:59;;;;;;;;;;;;;;;29.08;41.65;100991.09;5044839;28;66329;-45
2023/03/11 06:23:32;;;;;;;;;;;;;;;29.09;40.88;100991.97;5057920;27;69828;-47
2023/03/11 06:26:04;;;;;;;;;;;;;;;29.09;41.42;100978.47;5060835;27;66488;-45
2023/03/11 06:28:39;;;;;;;;;;;;;;;29.07;41.45;100972.44;5052633;28;69675;-45
2023/03/11 06:31:11;;;;;;;;;;;;;;;29.06;40.75;100976.16;5055906;28;65909;-44
2023/03/11 06:33:41;;;;;;;;;;;;;;;29.06;40.93;100968.91;5079837;27;70729;-45
2023/03/11 06:36:12;;;;;;;;;;;;;;;29.08;40.37;100963.28;5057796;28;66649;-44
2023/03/11 06:38:43;;;;;;;;;;;;;;;29.10;40.73;100963.91;5065513;27;69737;-44
2023/03/11 06:41:15;;;;;;;;;;;;;;;29.10;40.50;100962.03;5042791;28;66932;-45
2023/03/11 06:43:46;;;;;;;;;;;;;;;29.12;40.41;100949.16;5055230;28;70458;-45
2023/03/11 06:46:18;;;;;;;;;;;;;;;29.13;40.29;100942.72;5050528;28;65552;-45
2023/03/11 06:48:53;;;;;;;;;;;;;;;29.13;40.14;100931.06;5038239;28;70240;-44
2023/03/11 06:51:24;;;;;;;;;;;;;;;29.14;40.67;100917.38;5056467;28;65340;-45
2023/03/11 06:53:55;;;;;;;;;;;;;;;29.18;40.71;100931.28;5077634;27;70565;-44
2023/03/11 06:56:27;;;;;;;;;;;;;;;29.20;40.73;100918.41;5050584;28;66483;-47
2023/03/11 06:59:05;;;;;;;;;;;;;;;29.25;40.83;100907.78;5056178;28;70346;-46
2023/03/11 07:01:35;;;;;;;;;;;;;;;29.29;41.12;100910.94;5055422;28;66121;-45
2023/03/11 07:04:09;;;;;;;;;;;;;;;29.31;40.69;100898.88;5046784;28;71885;-45
2023/03/11 07:06:42;;;;;;;;;;;;;;;29.33;41.10;100902.19;5077583;27;67751;-45
2023/03/11 07:09:18;;;;;;;;;;;;;;;29.39;40.46;100895.97;5042965;28;69905;-46
2023/03/11 07:11:48;;;;;;;;;;;;;;;29.38;40.98;100883.47;5042265;28;66519;-47
2023/03/11 07:14:25;;;;;;;;;;;;;;;29.46;40.41;100878.91;5060205;28;70076;-46
2023/03/11 07:16:57;;;;;;;;;;;;;;;29.50;40.31;100880.13;5051242;27;65571;-46
2023/03/11 07:19:32;;;;;;;;;;;;;;;29.51;40.54;100871.00;5041027;28;69935;-47
2023/03/11 07:22:03;;;;;;;;;;;;;;;29.53;40.36;100868.88;5052670;28;66070;-46
2023/03/11 07:24:33;;;;;;;;;;;;;;;29.53;40.00;100858.06;5041986;28;70099;-47
2023/03/11 07:27:04;;;;;;;;;;;;;;;29.54;40.18;100859.75;5048579;28;66539;-45
2023/03/11 07:29:34;;;;;;;;;;;;;;;29.54;40.02;100851.66;5040413;27;70644;-49
2023/03/11 07:32:06;;;;;;;;;;;;;;;29.56;39.43;100847.69;5047554;28;66963;-47
2023/03/11 07:34:36;;;;;;;;;;;;;;;29.58;39.49;100847.47;5047907;28;69165;-48
2023/03/11 07:37:07;;;;;;;;;;;;;;;29.59;39.32;100852.66;5043735;27;66867;-46
2023/03/11 07:39:38;;;;;;;;;;;;;;;29.59;39.09;100863.47;5048462;28;69938;-48
2023/03/11 07:42:08;;;;;;;;;;;;;;;29.63;39.55;100858.50;5049193;28;66083;-48
2023/03/11 07:44:39;;;;;;;;;;;;;;;29.64;38.98;100854.75;5051087;28;70601;-48
2023/03/11 07:47:10;;;;;;;;;;;;;;;29.66;39.22;100851.84;5048351;28;65698;-46
2023/03/11 07:49:42;;;;;;;;;;;;;;;29.72;39.76;100849.09;5051511;28;70247;-48
2023/03/11 07:52:13;;;;;;;;;;;;;;;29.76;40.28;100846.81;5053342;28;66834;-46
2023/03/11 07:54:44;;;;;;;;;;;;;;;29.78;39.81;100845.56;5044882;28;70017;-45
2023/03/11 07:57:16;;;;;;;;;;;;;;;29.79;40.19;100841.81;5054587;28;65691;-45
2023/03/11 07:59:46;;;;;;;;;;;;;;;29.84;40.28;100844.72;5050174;28;69803;-46
2023/03/11 08:02:16;;;;;;;;;;;;;;;29.88;39.54;100838.88;5054919;28;66507;-50
2023/03/11 08:04:46;;;;;;;;;;;;;;;29.77;40.18;100835.78;5049608;28;70359;-46
2023/03/11 08:07:17;;;;;;;;;;;;;;;29.79;42.65;100833.72;5050672;28;65214;-46
2023/03/11 08:09:47;;;;;;;;;;;;;;;29.90;42.79;100831.38;5052767;28;70563;-44
2023/03/11 08:12:18;;;;;;;;;;;;;;;29.96;43.32;100827.81;5054634;28;66572;-46
2023/03/11 08:14:48;;;;;;;;;;;;;;;30.02;43.57;100830.47;5047253;28;69556;-47
2023/03/11 08:17:18;;;;;;;;;;;;;;;30.11;44.35;100832.94;5050109;28;66843;-44
2023/03/11 08:19:49;;;;;;;;;;;;;;;30.15;44.68;100829.59;5043932;28;70119;-45
2023/03/11 08:22:19;;;;;;;;;;;;;;;30.20;44.98;100835.19;5051856;28;65775;-46
2023/03/11 08:24:50;;;;;;;;;;;;;;;30.28;45.04;100824.13;5047220;28;70424;-44
2023/03/11 08:27:21;;;;;;;;;;;;;;;30.37;45.40;100815.72;5080380;27;66585;-45
2023/03/11 08:29:52;;;;;;;;;;;;;;;30.43;45.28;100809.47;5047793;28;69188;-44
2023/03/11 08:32:22;;;;;;;;;;;;;;;30.47;46.17;100814.19;5047004;28;66214;-46
2023/03/11 08:34:52;;;;;;;;;;;;;;;30.55;46.13;100820.41;5050319;28;70702;-46
2023/03/11 08:37:23;;;;;;;;;;;;;;;30.60;46.13;100831.41;5048690;28;66382;-47
2023/03/11 08:39:53;;;;;;;;;;;;;;;30.62;46.98;100832.84;5048390;28;69759;-45
2023/03/11 08:42:23;;;;;;;;;;;;;;;30.70;46.79;100838.00;5047562;27;66301;-46
2023/03/11 08:44:53;;;;;;;;;;;;;;;30.75;47.51;100840.03;5044039;28;69785;-45
2023/03/11 08:47:24;;;;;;;;;;;;;;;30.80;47.61;100845.66;5048899;28;66887;-46
2023/03/11 08:49:54;;;;;;;;;;;;;;;30.87;49.26;100842.88;5049944;28;71066;-47
2023/03/11 08:52:24;;;;;;;;;;;;;;;30.92;51.43;100845.75;5041948;28;65970;-48
2023/03/11 08:54:55;;;;;;;;;;;;;;;31.00;52.49;100841.94;5046502;28;69698;-44
2023/03/11 08:57:26;;;;;;;;;;;;;;;31.03;53.85;100853.16;5048780;28;66477;-47
2023/03/11 08:59:57;;;;;;;;;;;;;;;31.10;53.83;100859.34;5046464;28;70369;-49
2023/03/11 09:02:27;;;;;;;;;;;;;;;31.12;54.55;100854.53;5049059;28;66038;-46
2023/03/11 09:04:57;;;;;;;;;;;;;;;31.16;55.70;100847.63;5047981;28;70132;-48
2023/03/11 09:07:28;;;;;;;;;;;;;;;31.25;55.62;100855.47;5045940;28;66346;-48
2023/03/11 09:09:58;;;;;;;;;;;;;;;31.29;55.86;100860.22;5048383;28;69988;-47
2023/03/11 09:12:29;;;;;;;;;;;;;;;31.34;56.26;100854.09;5046576;28;66092;-48
2023/03/11 09:14:59;;;;;;;;;;;;;;;31.35;56.27;100861.22;5046020;28;69378;-47
2023/03/11 09:17:30;;;;;;;;;;;;;;;31.37;56.39;100867.25;5056647;28;66682;-46
2023/03/11 09:20:00;;;;;;;;;;;;;;;31.39;56.34;100874.09;5048336;28;70234;-46
2023/03/11 09:22:30;;;;;;;;;;;;;;;31.40;56.02;100883.09;5052937;28;66225;-49
2023/03/11 09:25:01;;;;;;;;;;;;;;;31.43;56.04;100885.34;5053216;28;70379;-47
2023/03/11 09:27:31;;;;;;;;;;;;;;;31.46;54.45;100890.31;5041359;28;65266;-50
2023/03/11 09:30:01;;;;;;;;;;;;;;;31.44;53.89;100892.41;5048376;28;70684;-49
2023/03/11 09:32:31;;;;;;;;;;;;;;;31.45;53.48;100894.06;5044055;28;66477;-50
2023/03/11 09:35:02;;;;;;;;;;;;;;;31.59;53.16;100901.03;5045121;28;69855;-47
2023/03/11 09:37:34;;;;;;;;;;;;;;;31.72;53.20;100899.22;5045634;27;66331;-48
2023/03/11 09:40:06;;;;;;;;;;;;;;;31.84;53.05;100902.81;5046052;28;70067;-48
2023/03/11 09:42:39;;;;;;;;;;;;;;;31.89;53.08;100905.69;5046126;27;66937;-46
2023/03/11 09:45:10;;;;;;;;;;;;;;;31.72;52.48;100881.06;5064031;28;70378;-43
2023/03/11 09:47:46;;;;;;;;;;;;;;;31.94;52.58;100911.31;5058200;27;68165;-44
2023/03/11 09:50:23;;;;;;;;;;;;;;;31.96;52.18;100911.91;5050601;27;70130;-44
2023/03/11 09:53:03;;;;;;;;;;;;;;;31.99;51.83;100906.03;5052135;28;66477;-45
2023/03/11 09:55:36;;;;;;;;;;;;;;;31.98;52.32;100912.53;5055133;28;70184;-45
2023/03/11 09:58:29;;;;;;;;;;;;;;;32.05;51.93;100910.53;5059388;28;66869;-45
2023/03/11 10:01:01;;;;;;;;;;;;;;;32.10;51.70;100917.19;5048192;27;70204;-43
2023/03/11 10:03:34;;;;;;;;;;;;;;;31.98;53.04;100920.66;5047997;28;66949;-46
2023/03/11 10:06:13;;;;;;;;;;;;;;;31.81;54.13;100924.97;5048430;28;69635;-44
2023/03/11 10:08:51;;;;;;;;;;;;;;;31.68;54.78;100925.13;5052814;28;66786;-46
2023/03/11 10:11:33;;;;;;;;;;;;;;;31.60;55.50;100929.78;5044849;28;69340;-46
2023/03/11 10:14:28;;;;;;;;;;;;;;;31.57;56.04;100932.97;5047683;28;65527;-46
2023/03/11 10:17:12;;;;;;;;;;;;;;;31.54;56.69;100929.88;5053391;28;70275;-47
2023/03/11 10:19:47;;;;;;;;;;;;;;;31.51;57.39;100931.16;5043845;28;66398;-46
2023/03/11 10:22:17;;;;;;;;;;;;;;;31.67;56.28;100935.13;5042458;28;69907;-45
2023/03/11 10:25:09;;;;;;;;;;;;;;;31.80;56.17;100936.91;5046780;28;66976;-44
2023/03/11 10:27:47;;;;;;;;;;;;;;;31.90;55.48;100936.34;5042652;28;69954;-45
2023/03/11 10:30:29;;;;;;;;;;;;;;;31.97;55.83;100943.41;5046556;28;65916;-43
2023/03/11 10:32:59;;;;;;;;;;;;;;;32.01;55.23;100938.34;5042264;28;70530;-45
2023/03/11 10:35:38;;;;;;;;;;;;;;;32.05;54.74;100947.69;5051288;28;65751;-43
2023/03/11 10:38:17;;;;;;;;;;;;;;;32.08;54.70;100941.00;5044969;28;69832;-44
2023/03/11 10:40:50;;;;;;;;;;;;;;;32.10;54.70;100947.84;5047324;27;66369;-44
2023/03/11 10:43:23;;;;;;;;;;;;;;;32.10;54.18;100950.56;5044265;28;70271;-44
2023/03/11 10:45:54;;;;;;;;;;;;;;;32.11;53.42;100957.66;5042695;28;66281;-44
2023/03/11 10:48:25;;;;;;;;;;;;;;;32.14;52.73;100959.06;5053385;28;70542;-44
2023/03/11 10:50:55;;;;;;;;;;;;;;;32.15;52.22;100955.28;5047945;28;66119;-44
2023/03/11 10:53:26;;;;;;;;;;;;;;;32.15;52.07;100955.28;5059897;28;70343;-45
2023/03/11 10:55:57;;;;;;;;;;;;;;;32.12;52.02;100964.72;5050411;28;66892;-44
2023/03/11 10:58:29;;;;;;;;;;;;;;;32.03;52.83;100964.19;5047761;27;68995;-46
2023/03/11 11:01:01;;;;;;;;;;;;;;;31.81;52.95;100963.78;5050408;27;66195;-44
2023/03/11 11:03:32;;;;;;;;;;;;;;;31.61;49.49;100968.59;5044067;28;69823;-44
2023/03/11 11:06:04;;;;;;;;;;;;;;;31.20;48.71;100928.47;5042302;28;66894;-42
2023/03/11 11:08:34;;;;;;;;;;;;;;;31.30;48.07;100972.16;5043431;28;70431;-43
2023/03/11 11:11:19;;;;;;;;;;;;;;;31.15;46.88;100969.78;5042275;28;66469;-43
2023/03/11 11:13:56;;;;;;;;;;;;;;;31.06;46.88;100966.50;5043032;27;70517;-42
2023/03/11 11:16:28;;;;;;;;;;;;;;;31.01;46.56;100969.06;5049295;28;67173;-42
2023/03/11 11:19:04;;;;;;;;;;;;;;;30.96;46.31;100970.75;5050432;28;69970;-45
2023/03/11 11:21:39;;;;;;;;;;;;;;;30.86;46.35;100974.75;5048763;28;65688;-44
2023/03/11 11:24:26;;;;;;;;;;;;;;;30.80;46.82;100972.94;5050635;28;70037;-45
2023/03/11 11:27:04;;;;;;;;;;;;;;;30.71;46.46;100985.88;5052908;28;66692;-44
2023/03/11 11:29:34;;;;;;;;;;;;;;;30.75;47.90;100980.84;5050956;28;69942;-44
2023/03/11 11:32:24;;;;;;;;;;;;;;;30.93;47.60;100982.88;5055770;27;66680;-45
2023/03/11 11:34:58;;;;;;;;;;;;;;;31.00;47.93;100997.19;5049078;28;70293;-40
2023/03/11 11:37:31;;;;;;;;;;;;;;;30.89;48.34;100993.28;5052111;27;66516;-42
2023/03/11 11:40:18;;;;;;;;;;;;;;;30.81;48.01;101001.66;5053868;27;70550;-44
2023/03/11 11:42:52;;;;;;;;;;;;;;;30.77;49.42;101013.13;5047577;28;66242;-40
2023/03/11 11:45:31;;;;;;;;;;;;;;;30.78;50.33;101018.31;5057099;28;70744;-40
2023/03/11 11:48:11;;;;;;;;;;;;;;;30.78;50.56;101020.19;5048752;28;66656;-41
2023/03/11 11:50:44;;;;;;;;;;;;;;;30.76;51.29;101031.25;5047457;28;69848;-41
2023/03/11 11:53:33;;;;;;;;;;;;;;;30.77;51.96;101026.69;5049925;28;66754;-42
2023/03/11 11:56:04;;;;;;;;;;;;;;;30.75;52.06;101039.59;5057123;27;70350;-41
2023/03/11 11:58:34;;;;;;;;;;;;;;;30.28;52.45;100964.84;5052568;28;65491;-40
2023/03/11 12:01:25;;;;;;;;;;;;;;;30.76;52.56;101041.25;5052789;28;69357;-40
2023/03/11 12:04:04;;;;;;;;;;;;;;;30.75;53.50;101050.44;5055220;28;66839;-38
2023/03/11 12:07:00;;;;;;;;;;;;;;;30.56;51.57;101044.88;5060756;28;69969;-41
2023/03/11 12:09:33;;;;;;;;;;;;;;;30.36;50.30;101052.22;5089243;27;65611;-40
2023/03/11 12:12:21;;;;;;;;;;;;;;;30.21;49.77;101053.28;5046942;28;70045;-41
2023/03/11 12:15:00;;;;;;;;;;;;;;;30.12;49.06;101064.56;5055789;28;66192;-39
2023/03/11 12:17:31;;;;;;;;;;;;;;;30.03;49.28;101058.50;5050564;28;69940;-41
2023/03/11 12:20:14;;;;;;;;;;;;;;;29.97;48.58;101070.19;5056465;28;66562;-41
2023/03/11 12:23:00;;;;;;;;;;;;;;;29.88;48.14;101076.84;5055227;27;69785;-40
2023/03/11 12:25:48;;;;;;;;;;;;;;;29.77;47.61;101067.50;5054110;27;66919;-41
2023/03/11 12:28:23;;;;;;;;;;;;;;;29.72;47.51;101065.41;5048553;28;70068;-41
2023/03/11 12:30:57;;;;;;;;;;;;;;;29.64;46.88;101065.59;5046406;28;66228;-39
2023/03/11 12:33:39;;;;;;;;;;;;;;;29.59;46.30;101084.31;5052165;28;69415;-42
2023/03/11 12:36:23;;;;;;;;;;;;;;;29.53;46.20;101083.25;5051248;27;66586;-40
2023/03/11 12:38:53;;;;;;;;;;;;;;;29.48;46.52;101090.31;5050159;28;70352;-40
2023/03/11 12:41:23;;;;;;;;;;;;;;;29.43;45.80;101090.94;5053804;27;66886;-39
2023/03/11 12:43:58;;;;;;;;;;;;;;;29.39;45.96;101093.22;5053870;28;70328;-40
2023/03/11 12:46:47;;;;;;;;;;;;;;;29.35;46.90;101094.66;5051752;28;65518;-41
2023/03/11 12:49:22;;;;;;;;;;;;;;;29.34;46.85;101093.00;5049260;28;70147;-39
2023/03/11 12:52:03;;;;;;;;;;;;;;;29.35;47.81;101091.94;5043250;28;66120;-39
2023/03/11 12:54:35;;;;;;;;;;;;;;;29.34;48.11;101101.09;5053972;28;70170;-39
2023/03/11 12:57:17;;;;;;;;;;;;;;;29.29;48.81;101103.59;5053439;28;66301;-41
2023/03/11 12:59:47;;;;;;;;;;;;;;;29.27;49.02;101099.41;5050817;28;69747;-39
2023/03/11 13:02:33;;;;;;;;;;;;;;;29.20;48.76;101104.81;5049691;28;65646;-40
2023/03/11 13:05:22;;;;;;;;;;;;;;;29.18;49.19;101101.47;5055756;27;70071;-40